Terminal Aerodrome Forecast
Issued by NWS

Home | Current Version | Previous Version | Graphics & Text | Print | Product List | Glossary On
Versions: 1 2 3 4 5 6 7 8 9 10 11 12 13
000
FTUS43 KDVN 081100
TAFCID
TAF
KCID 081120Z 0812/0912 30010KT P6SM SKC
     FM081400 31016G24KT P6SM SCT050
     FM090100 29005KT P6SM SCT250=

USA.gov is the U.S. government's official web portal to all federal, state and local government web resources and services.